Airfield :
LOGIN :

Register | Disclaimer

   EN    FR    IT 

 










Legend :    VFR   Marginal VFR   IFR   Intensive IFR   Very Intensive IFR
Visi :
Ceiling :
>= 8 km
>= 3000ft
5 to 8 km
1000 to 3000 ft
1500m to 5 km
500 to 1000 ft
800 to 1500m
200 to 500 ft
< 800m
< 200 ft
Symbols :   Thunderstorms  Fog  Heavy snow  Heavy precipitations  Wind > 20 kt
SIGMETs :     Misc.  Thunderstorms  Icing  Turbulence  Mountain Waves  Volcanic Ashes






- Airport Elevation : 788 ft
- IATA code : DCM


LFCK - Castres-Mazamet

CURRENT METAR :
  • 261700Z AUTO 00000KT 7000 RA SCT009/// BKN015/// BKN025/// ///CB 10/10 Q1010 TEMPO 3000 RA OVC004

EXPIRED METARs :
  • 261630Z AUTO VRB02KT 4800 2200 RA BR FEW008/// SCT022/// BKN029/// ///CB 10/09 Q1010 TEMPO OVC004
  • 261600Z AUTO 34006KT 5000 RA BR FEW007/// OVC020/// ///TCU 10/09 Q1010 TEMPO OVC004
  • 261530Z AUTO 35007KT 9999 RA SCT009/// BKN020/// OVC033/// ///TCU 11/10 Q1011 TEMPO 3000 RA OVC004
  • 261500Z AUTO 34009KT 9999 -RA SCT019/// BKN025/// BKN030/// ///TCU 11/10 Q1012 BECMG 4000 -RA BKN007
  • 261430Z AUTO 33011KT 9999 RA FEW014/// BKN029/// OVC035/// ///TCU 11/09 Q1012 BECMG 4000 -RA BKN007

TAF TAF LFCK
Valid from the 26 at 15:00 until the 27 at 00:00 UTC


261400Z 2615/2624 33010KT 9999 -RA SCT012 BKN030
TEMPO 2616/2620 VRB03KT 3000 RA BKN008
PROB40
TEMPO 2617/2620 OVC004
BECMG 2620/2622 NSW BKN011



MET'MAP, your aeronautical weather chart ! - Copyright ORBIFLY December 2007 - Disclaimer

ORBIFLY MET'MAP TEAM :

Programming & Development : Alexandra Zaïnal
Concept & original design : Baudouin d'Aumeries
Assistance for programming : Marc-Olivier Méhu
Technical & hardware support : Manuel Goepfert

Contact : metmap@orbifly.com




SOURCES & CREDITS :

   NOAA